Narberth, United Kingdom
Current Conditions -  °F | °C
As of 12:50 AM on Wednesday 28 Jan 2015 (Local Time) from EGOP Reporting Station
Overcast Overcast  
Wind Chill:   Ceiling: 300
Heat Index:   Visibility: 1.5mi
Dew Point:   Wind: 24mph
Humidity: 100%   Direction: 220°SW
Pressure: 30"   Gusts: NA
Location:  51.8°N, 4.74°W
Report Text: EGOP 280050Z AUTO 22021KT 2500 // OVC003/// 08/08 Q1016
Loading
Personal Weather Stations






























Interactive Weather Map New forecast layout! Learn more

10-Day Weather Forecast

Advertisements
Track Severe Weather on mobile